| time (UTC) | temp F | wind direction | speed MPH | gust MPH | rain 1hr in | rain 24hr in | rain mn in | humidity % | barometer mb |
| 20260905214321 | 97 | 278 | 2.0 | 2.0 | 0.00 | 0.00 | 0.00 | 49 | 1008.9 |
| 20260905213816 | 97 | 243 | 3.0 | 3.0 | 0.00 | 0.00 | 0.00 | 49 | 1009.2 |
| 20260905213313 | 97 | 228 | 3.0 | 6.0 | 0.00 | 0.00 | 0.00 | 49 | 1009.2 |
| 20260905212812 | 97 | 291 | 7.0 | 8.0 | 0.00 | 0.00 | 0.00 | 49 | 1009.0 |
| 20260905212307 | 99 | 296 | 5.0 | 7.0 | 0.00 | 0.00 | 0.00 | 48 | 1009.2 |
| 20260905211801 | 99 | 170 | 5.0 | 7.0 | 0.00 | 0.00 | 0.00 | 47 | 1009.1 |
| 20260905211256 | 100 | 242 | 5.0 | 6.0 | 0.00 | 0.00 | 0.00 | 45 | 1009.1 |
| 20260905210753 | 100 | 305 | 4.0 | 5.0 | 0.00 | 0.00 | 0.00 | 45 | 1009.0 |
| 20260905210253 | 100 | 301 | 4.0 | 6.0 | 0.00 | 0.00 | 0.00 | 44 | 1008.9 |
| 20260905205751 | 101 | 309 | 8.0 | 8.0 | 0.00 | 0.00 | 0.00 | 44 | 1009.1 |
| 20260905205246 | 100 | 12 | 2.0 | 3.0 | 0.00 | 0.00 | 0.00 | 44 | 1009.2 |
| 20260905204746 | 100 | 302 | 7.0 | 9.0 | 0.00 | 0.00 | 0.00 | 44 | 1009.8 |
| 20260905204242 | 100 | 330 | 6.0 | 8.0 | 0.00 | 0.00 | 0.00 | 43 | 1009.3 |
| 20260905203741 | 101 | 271 | 5.0 | 6.0 | 0.00 | 0.00 | 0.00 | 43 | 1009.5 |
| 20260905203237 | 101 | 4 | 7.0 | 8.0 | 0.00 | 0.00 | 0.00 | 43 | 1009.6 |
| 20260905202732 | 100 | 35 | 4.0 | 5.0 | 0.00 | 0.00 | 0.00 | 44 | 1009.7 |
| 20260905202227 | 100 | 312 | 5.0 | 6.0 | 0.00 | 0.00 | 0.00 | 44 | 1009.6 |
| 20260905201722 | 100 | 324 | 7.0 | 9.0 | 0.00 | 0.00 | 0.00 | 44 | 1009.6 |
| 20260905201217 | 100 | 295 | 5.0 | 7.0 | 0.00 | 0.00 | 0.00 | 43 | 1009.9 |
| 20260905200712 | 101 | 17 | 5.0 | 6.0 | 0.00 | 0.00 | 0.00 | 43 | 1009.7 |
| 20260905200208 | 102 | 341 | 5.0 | 7.0 | 0.00 | 0.00 | 0.00 | 43 | 1009.7 |
| 20260905195706 | 101 | 358 | 1.0 | 1.0 | 0.00 | 0.00 | 0.00 | 44 | 1009.9 |
| 20260905195201 | 101 | 20 | 5.0 | 6.0 | 0.00 | 0.00 | 0.00 | 44 | 1009.8 |
| 20260905194656 | 102 | 233 | 5.0 | 6.0 | 0.00 | 0.00 | 0.00 | 43 | 1010.0 |
| 20260905194155 | 102 | 336 | 5.0 | 6.0 | 0.00 | 0.00 | 0.00 | 44 | 1009.8 |
| 20260905193650 | 100 | 35 | 4.0 | 5.0 | 0.00 | 0.00 | 0.00 | 45 | 1010.1 |
| 20260905193145 | 100 | 330 | 4.0 | 5.0 | 0.00 | 0.00 | 0.00 | 45 | 1010.2 |
| 20260905192640 | 100 | 333 | 4.0 | 6.0 | 0.00 | 0.00 | 0.00 | 45 | 1010.1 |
| 20260905192137 | 100 | 241 | 6.0 | 9.0 | 0.00 | 0.00 | 0.00 | 44 | 1010.4 |
| 20260905191636 | 100 | 269 | 4.0 | 5.0 | 0.00 | 0.00 | 0.00 | 43 | 1010.5 |
| 20260905191134 | 100 | 40 | 2.0 | 3.0 | 0.00 | 0.00 | 0.00 | 44 | 1010.5 |
| 20260905190627 | 100 | 352 | 4.0 | 5.0 | 0.00 | 0.00 | 0.00 | 45 | 1010.6 |
| 20260905190127 | 100 | 17 | 10.0 | 10.0 | 0.00 | 0.00 | 0.00 | 45 | 1010.6 |
| 20260905185626 | 100 | 4 | 1.0 | 1.0 | 0.00 | 0.00 | 0.00 | 47 | 1010.7 |
| 20260905185120 | 100 | 42 | 0.0 | 1.0 | 0.00 | 0.00 | 0.00 | 46 | 1010.9 |
| 20260905184615 | 99 | 339 | 7.0 | 8.0 | 0.00 | 0.00 | 0.00 | 47 | 1010.9 |
| 20260905184114 | 100 | 351 | 4.0 | 5.0 | 0.00 | 0.00 | 0.00 | 47 | 1010.9 |
| 20260905183613 | 99 | 271 | 3.0 | 3.0 | 0.00 | 0.00 | 0.00 | 48 | 1010.9 |
| 20260905183109 | 100 | 322 | 7.0 | 8.0 | 0.00 | 0.00 | 0.00 | 47 | 1010.9 |
| 20260905182608 | 100 | 301 | 1.0 | 2.0 | 0.00 | 0.00 | 0.00 | 47 | 1011.1 |
| 20260905182102 | 100 | 249 | 8.0 | 9.0 | 0.00 | 0.00 | 0.00 | 47 | 1011.1 |
| 20260905181602 | 100 | 223 | 4.0 | 5.0 | 0.00 | 0.00 | 0.00 | 47 | 1011.2 |
| 20260905181101 | 99 | 352 | 3.0 | 3.0 | 0.00 | 0.00 | 0.00 | 49 | 1011.2 |
| 20260905180556 | 98 | 89 | 0.0 | 0.0 | 0.00 | 0.00 | 0.00 | 50 | 1011.4 |
| 20260905180052 | 98 | 349 | 7.0 | 8.0 | 0.00 | 0.00 | 0.00 | 50 | 1011.5 |
| 20260905175551 | 97 | 301 | 6.0 | 7.0 | 0.00 | 0.00 | 0.00 | 51 | 1011.6 |
| 20260905175047 | 97 | 326 | 5.0 | 7.0 | 0.00 | 0.00 | 0.00 | 52 | 1011.5 |
| 20260905174542 | 99 | 317 | 5.0 | 6.0 | 0.00 | 0.00 | 0.00 | 50 | 1011.5 |
| 20260905174037 | 98 | 149 | 2.0 | 2.0 | 0.00 | 0.00 | 0.00 | 52 | 1011.8 |
| 20260905173534 | 98 | 277 | 3.0 | 5.0 | 0.00 | 0.00 | 0.00 | 52 | 1011.7 |
| 20260905173029 | 97 | 302 | 4.0 | 5.0 | 0.00 | 0.00 | 0.00 | 52 | 1011.7 |
| 20260905172527 | 97 | 35 | 4.0 | 5.0 | 0.00 | 0.00 | 0.00 | 55 | 1011.8 |
| 20260905172023 | 98 | 339 | 5.0 | 7.0 | 0.00 | 0.00 | 0.00 | 54 | 1011.9 |
| 20260905171519 | 97 | 255 | 1.0 | 2.0 | 0.00 | 0.00 | 0.00 | 54 | 1011.8 |
| 20260905171015 | 97 | 232 | 3.0 | 3.0 | 0.00 | 0.00 | 0.00 | 55 | 1011.9 |
| 20260905170511 | 97 | 279 | 3.0 | 6.0 | 0.00 | 0.00 | 0.00 | 55 | 1011.8 |
| 20260905170007 | 97 | 347 | 3.0 | 3.0 | 0.00 | 0.00 | 0.00 | 56 | 1011.9 |
| 20260905165501 | 96 | 353 | 2.0 | 3.0 | 0.00 | 0.00 | 0.00 | 56 | 1012.1 |
| 20260905164955 | 95 | 269 | 5.0 | 6.0 | 0.00 | 0.00 | 0.00 | 57 | 1012.3 |
| 20260905164450 | 96 | 15 | 1.0 | 1.0 | 0.00 | 0.00 | 0.00 | 56 | 1012.0 |
| 20260905163944 | 95 | 58 | 0.0 | 0.0 | 0.00 | 0.00 | 0.00 | 56 | 1012.4 |
| 20260905163441 | 96 | 319 | 4.0 | 5.0 | 0.00 | 0.00 | 0.00 | 56 | 1012.4 |
| 20260905162937 | 96 | 42 | 7.0 | 9.0 | 0.00 | 0.00 | 0.00 | 56 | 1012.6 |
| 20260905162432 | 96 | 1 | 5.0 | 6.0 | 0.00 | 0.00 | 0.00 | 56 | 1012.9 |
| 20260905161927 | 95 | 34 | 2.0 | 2.0 | 0.00 | 0.00 | 0.00 | 56 | 1012.7 |
| 20260905161426 | 95 | 319 | 6.0 | 8.0 | 0.00 | 0.00 | 0.00 | 56 | 1012.8 |
| 20260905160924 | 95 | 323 | 2.0 | 2.0 | 0.00 | 0.00 | 0.00 | 57 | 1012.8 |
| 20260905160418 | 95 | 346 | 5.0 | 6.0 | 0.00 | 0.00 | 0.00 | 58 | 1012.7 |
| 20260905155913 | 94 | 331 | 6.0 | 7.0 | 0.00 | 0.00 | 0.00 | 59 | 1012.7 |
| 20260905155413 | 94 | 8 | 5.0 | 6.0 | 0.00 | 0.00 | 0.00 | 58 | 1012.7 |
| 20260905154911 | 94 | 308 | 3.0 | 5.0 | 0.00 | 0.00 | 0.00 | 59 | 1012.9 |
| 20260905154407 | 94 | 240 | 2.0 | 3.0 | 0.00 | 0.00 | 0.00 | 61 | 1012.9 |
| 20260905153903 | 94 | 308 | 3.0 | 3.0 | 0.00 | 0.00 | 0.00 | 61 | 1013.0 |
| 20260905153359 | 95 | 147 | 0.0 | 1.0 | 0.00 | 0.00 | 0.00 | 58 | 1012.8 |
| 20260905152858 | 93 | 76 | 0.0 | 0.0 | 0.00 | 0.00 | 0.00 | 60 | 1012.8 |
| 20260905152357 | 93 | 169 | 2.0 | 2.0 | 0.00 | 0.00 | 0.00 | 61 | 1012.7 |
| 20260905151853 | 93 | 121 | 2.0 | 2.0 | 0.00 | 0.00 | 0.00 | 61 | 1012.7 |
| 20260905151348 | 94 | 54 | 0.0 | 0.0 | 0.00 | 0.00 | 0.00 | 60 | 1012.8 |
| 20260905150843 | 93 | 78 | 0.0 | 1.0 | 0.00 | 0.00 | 0.00 | 60 | 1012.7 |
| 20260905150337 | 91 | 236 | 1.0 | 2.0 | 0.00 | 0.00 | 0.00 | 63 | 1012.8 |
| 20260905145834 | 91 | 262 | 1.0 | 2.0 | 0.00 | 0.00 | 0.00 | 63 | 1012.9 |
| 20260905145329 | 92 | 234 | 2.0 | 3.0 | 0.00 | 0.00 | 0.00 | 61 | 1012.7 |
| 20260905144828 | 91 | 47 | 0.0 | 0.0 | 0.00 | 0.00 | 0.00 | 64 | 1012.8 |
| 20260905144323 | 90 | 115 | 2.0 | 2.0 | 0.00 | 0.00 | 0.00 | 65 | 1012.9 |
| 20260905143822 | 91 | 209 | 3.0 | 3.0 | 0.00 | 0.00 | 0.00 | 63 | 1012.7 |
| 20260905143316 | 90 | 118 | 1.0 | 1.0 | 0.00 | 0.00 | 0.00 | 65 | 1012.6 |
| 20260905142816 | 90 | 236 | 1.0 | 1.0 | 0.00 | 0.00 | 0.00 | 65 | 1012.9 |
| 20260905142310 | 89 | 197 | 2.0 | 2.0 | 0.00 | 0.00 | 0.00 | 66 | 1012.9 |
| 20260905141806 | 89 | 167 | 2.0 | 2.0 | 0.00 | 0.00 | 0.00 | 66 | 1013.1 |
| 20260905141301 | 89 | 81 | 1.0 | 1.0 | 0.00 | 0.00 | 0.00 | 65 | 1013.0 |
| 20260905140757 | 89 | 162 | 1.0 | 2.0 | 0.00 | 0.00 | 0.00 | 65 | 1013.0 |
| 20260905140256 | 89 | 48 | 0.0 | 1.0 | 0.00 | 0.00 | 0.00 | 65 | 1013.0 |
| 20260905135755 | 89 | 330 | 0.0 | 1.0 | 0.00 | 0.00 | 0.00 | 65 | 1012.8 |
| 20260905135252 | 89 | 127 | 1.0 | 1.0 | 0.00 | 0.00 | 0.00 | 66 | 1013.1 |
| 20260905134751 | 87 | 290 | 1.0 | 1.0 | 0.00 | 0.00 | 0.00 | 69 | 1013.0 |
| 20260905134245 | 88 | 354 | 2.0 | 2.0 | 0.00 | 0.00 | 0.00 | 67 | 1013.1 |
| 20260905133739 | 88 | 332 | 1.0 | 1.0 | 0.00 | 0.00 | 0.00 | 66 | 1013.0 |
| 20260905133235 | 89 | 52 | 0.0 | 0.0 | 0.00 | 0.00 | 0.00 | 65 | 1013.2 |
| 20260905132734 | 88 | 302 | 0.0 | 0.0 | 0.00 | 0.00 | 0.00 | 66 | 1013.0 |
| 20260905132230 | 87 | 350 | 0.0 | 1.0 | 0.00 | 0.00 | 0.00 | 68 | 1013.1 |
| 20260905131724 | 86 | 204 | 1.0 | 1.0 | 0.00 | 0.00 | 0.00 | 69 | 1013.1 |
| 20260905131220 | 86 | 85 | 0.0 | 0.0 | 0.00 | 0.00 | 0.00 | 70 | 1013.2 |
| 20260905130714 | 86 | 111 | 1.0 | 1.0 | 0.00 | 0.00 | 0.00 | 71 | 1013.2 |
| 20260905130214 | 86 | 186 | 0.0 | 1.0 | 0.00 | 0.00 | 0.00 | 71 | 1013.2 |
| 20260905125709 | 85 | 103 | 0.0 | 1.0 | 0.00 | 0.00 | 0.00 | 72 | 1013.2 |
| 20260905125204 | 84 | 70 | 0.0 | 1.0 | 0.00 | 0.00 | 0.00 | 75 | 1013.1 |
| 20260905124700 | 84 | 185 | 1.0 | 1.0 | 0.00 | 0.00 | 0.00 | 76 | 1013.1 |
| 20260905124156 | 85 | 101 | 1.0 | 1.0 | 0.00 | 0.00 | 0.00 | 76 | 1012.9 |
| 20260905123650 | 85 | 212 | 1.0 | 1.0 | 0.00 | 0.00 | 0.00 | 73 | 1012.8 |
| 20260905123148 | 84 | 197 | 1.0 | 2.0 | 0.00 | 0.00 | 0.00 | 71 | 1013.0 |
| 20260905122647 | 84 | 80 | 0.0 | 0.0 | 0.00 | 0.00 | 0.00 | 72 | 1013.1 |
| 20260905122143 | 83 | 45 | 0.0 | 0.0 | 0.00 | 0.00 | 0.00 | 73 | 1013.0 |
| 20260905121643 | 82 | 52 | 0.0 | 0.0 | 0.00 | 0.00 | 0.00 | 75 | 1013.2 |
| 20260905121138 | 82 | 44 | 0.0 | 0.0 | 0.00 | 0.00 | 0.00 | 76 | 1013.0 |
| 20260905120637 | 81 | 258 | 0.0 | 1.0 | 0.00 | 0.00 | 0.00 | 77 | 1012.9 |
| 20260905120132 | 81 | 331 | 1.0 | 2.0 | 0.00 | 0.00 | 0.00 | 77 | 1013.0 |
| 20260905115632 | 81 | 343 | 1.0 | 1.0 | 0.00 | 0.00 | 0.00 | 77 | 1013.0 |
| 20260905115127 | 81 | 5 | 0.0 | 0.0 | 0.00 | 0.00 | 0.00 | 78 | 1012.9 |
| 20260905114626 | 81 | 12 | 1.0 | 1.0 | 0.00 | 0.00 | 0.00 | 78 | 1012.9 |
| 20260905114124 | 81 | 41 | 0.0 | 0.0 | 0.00 | 0.00 | 0.00 | 78 | 1012.3 |
| 20260905113614 | 81 | 38 | 0.0 | 0.0 | 0.00 | 0.00 | 0.00 | 78 | 1012.5 |
| 20260905113110 | 81 | 349 | 2.0 | 2.0 | 0.00 | 0.00 | 0.00 | 78 | 1012.4 |
| 20260905112604 | 81 | 337 | 2.0 | 2.0 | 0.00 | 0.00 | 0.00 | 79 | 1012.5 |
| 20260905112100 | 81 | 317 | 2.0 | 3.0 | 0.00 | 0.00 | 0.00 | 80 | 1012.3 |
| 20260905111555 | 81 | 9 | 0.0 | 1.0 | 0.00 | 0.00 | 0.00 | 81 | 1012.5 |
| 20260905111054 | 81 | 356 | 1.0 | 1.0 | 0.00 | 0.00 | 0.00 | 81 | 1012.4 |
| 20260905110553 | 81 | 17 | 1.0 | 1.0 | 0.00 | 0.00 | 0.00 | 81 | 1012.3 |
| 20260905110048 | 81 | 20 | 0.0 | 0.0 | 0.00 | 0.00 | 0.00 | 81 | 1012.3 |
| 20260905105542 | 81 | 1 | 0.0 | 1.0 | 0.00 | 0.00 | 0.00 | 80 | 1012.3 |
| 20260905105042 | 81 | 341 | 0.0 | 0.0 | 0.00 | 0.00 | 0.00 | 80 | 1012.2 |
| 20260905104538 | 82 | 12 | 0.0 | 1.0 | 0.00 | 0.00 | 0.00 | 81 | 1012.1 |
| 20260905104037 | 82 | 30 | 0.0 | 0.0 | 0.00 | 0.00 | 0.00 | 81 | 1012.2 |
| 20260905103532 | 82 | 231 | 1.0 | 1.0 | 0.00 | 0.00 | 0.00 | 80 | 1012.3 |
| 20260905103029 | 82 | 221 | 1.0 | 1.0 | 0.00 | 0.00 | 0.00 | 80 | 1012.1 |
| 20260905102524 | 82 | 67 | 0.0 | 0.0 | 0.00 | 0.00 | 0.00 | 80 | 1012.2 |
| 20260905102021 | 82 | 44 | 0.0 | 0.0 | 0.00 | 0.00 | 0.00 | 78 | 1012.1 |
| 20260905101519 | 82 | 46 | 0.0 | 0.0 | 0.00 | 0.00 | 0.00 | 77 | 1012.3 |
| 20260905101017 | 82 | 51 | 0.0 | 0.0 | 0.00 | 0.00 | 0.00 | 77 | 1012.1 |
| 20260905100514 | 82 | 51 | 0.0 | 0.0 | 0.00 | 0.00 | 0.00 | 76 | 1012.0 |
| 20260905100014 | 82 | 50 | 0.0 | 0.0 | 0.00 | 0.00 | 0.00 | 76 | 1012.1 |
| 20260905095508 | 82 | 40 | 0.0 | 0.0 | 0.00 | 0.00 | 0.00 | 76 | 1012.1 |
| 20260905095003 | 83 | 42 | 0.0 | 0.0 | 0.00 | 0.00 | 0.00 | 75 | 1012.0 |
| 20260905094458 | 83 | 42 | 0.0 | 0.0 | 0.00 | 0.00 | 0.00 | 75 | 1011.7 |
| 20260905093957 | 83 | 20 | 0.0 | 0.0 | 0.00 | 0.00 | 0.00 | 75 | 1011.7 |
| 20260905093452 | 83 | 40 | 0.0 | 0.0 | 0.00 | 0.00 | 0.00 | 75 | 1011.9 |
| 20260905092948 | 83 | 14 | 0.0 | 0.0 | 0.00 | 0.00 | 0.00 | 74 | 1011.7 |
| 20260905092443 | 83 | 21 | 0.0 | 0.0 | 0.00 | 0.00 | 0.00 | 74 | 1011.6 |
| 20260905091938 | 83 | 1 | 0.0 | 0.0 | 0.00 | 0.00 | 0.00 | 74 | 1011.6 |
| 20260905091433 | 83 | 287 | 2.0 | 2.0 | 0.00 | 0.00 | 0.00 | 74 | 1011.6 |
| 20260905090932 | 83 | 316 | 1.0 | 1.0 | 0.00 | 0.00 | 0.00 | 74 | 1011.6 |
| 20260905090428 | 83 | 326 | 1.0 | 1.0 | 0.00 | 0.00 | 0.00 | 74 | 1011.6 |
| 20260905085927 | 83 | 299 | 2.0 | 2.0 | 0.00 | 0.00 | 0.00 | 75 | 1011.5 |
| 20260905085426 | 83 | 297 | 1.0 | 1.0 | 0.00 | 0.00 | 0.00 | 75 | 1011.6 |
| 20260905084922 | 83 | 347 | 1.0 | 1.0 | 0.00 | 0.00 | 0.00 | 75 | 1011.5 |
| 20260905084421 | 84 | 13 | 0.0 | 1.0 | 0.00 | 0.00 | 0.00 | 76 | 1011.6 |
| 20260905083916 | 84 | 312 | 1.0 | 1.0 | 0.00 | 0.00 | 0.00 | 76 | 1011.5 |
| 20260905083412 | 84 | 265 | 1.0 | 2.0 | 0.00 | 0.00 | 0.00 | 76 | 1011.8 |
| 20260905082908 | 84 | 355 | 1.0 | 1.0 | 0.00 | 0.00 | 0.00 | 76 | 1011.6 |
| 20260905082404 | 84 | 280 | 1.0 | 1.0 | 0.00 | 0.00 | 0.00 | 76 | 1011.8 |
| 20260905081858 | 84 | 240 | 1.0 | 1.0 | 0.00 | 0.00 | 0.00 | 75 | 1011.9 |
| 20260905081353 | 84 | 306 | 0.0 | 1.0 | 0.00 | 0.00 | 0.00 | 75 | 1012.1 |
| 20260905080852 | 84 | 295 | 0.0 | 0.0 | 0.00 | 0.00 | 0.00 | 75 | 1012.0 |
| 20260905080347 | 84 | 248 | 3.0 | 3.0 | 0.00 | 0.00 | 0.00 | 75 | 1012.1 |
| 20260905075845 | 84 | 233 | 2.0 | 2.0 | 0.00 | 0.00 | 0.00 | 75 | 1012.0 |
| 20260905075339 | 84 | 245 | 1.0 | 2.0 | 0.00 | 0.00 | 0.00 | 75 | 1011.9 |
| 20260905074839 | 84 | 229 | 2.0 | 2.0 | 0.00 | 0.00 | 0.00 | 75 | 1011.9 |
| 20260905074335 | 84 | 251 | 0.0 | 1.0 | 0.00 | 0.00 | 0.00 | 77 | 1011.9 |
| 20260905073830 | 84 | 162 | 0.0 | 0.0 | 0.00 | 0.00 | 0.00 | 77 | 1012.1 |
| 20260905073325 | 84 | 346 | 0.0 | 0.0 | 0.00 | 0.00 | 0.00 | 78 | 1011.9 |
| 20260905072820 | 84 | 211 | 1.0 | 1.0 | 0.00 | 0.00 | 0.00 | 78 | 1012.0 |
| 20260905072315 | 84 | 226 | 1.0 | 1.0 | 0.00 | 0.00 | 0.00 | 77 | 1011.9 |
| 20260905071812 | 85 | 213 | 1.0 | 1.0 | 0.00 | 0.00 | 0.00 | 76 | 1012.0 |
| 20260905071308 | 84 | 291 | 0.0 | 1.0 | 0.00 | 0.00 | 0.00 | 75 | 1012.0 |
| 20260905070802 | 84 | 343 | 0.0 | 0.0 | 0.00 | 0.00 | 0.00 | 75 | 1012.0 |
| 20260905070258 | 84 | 323 | 1.0 | 1.0 | 0.00 | 0.00 | 0.00 | 75 | 1012.0 |
| 20260905065757 | 84 | 267 | 2.0 | 3.0 | 0.00 | 0.00 | 0.00 | 76 | 1011.8 |
| 20260905065250 | 84 | 297 | 1.0 | 1.0 | 0.00 | 0.00 | 0.00 | 76 | 1012.0 |
| 20260905064746 | 85 | 339 | 1.0 | 1.0 | 0.00 | 0.00 | 0.00 | 76 | 1012.1 |
| 20260905064241 | 85 | 349 | 1.0 | 1.0 | 0.00 | 0.00 | 0.00 | 75 | 1012.3 |
| 20260905063740 | 85 | 44 | 0.0 | 0.0 | 0.00 | 0.00 | 0.00 | 75 | 1012.1 |
| 20260905063236 | 85 | 195 | 0.0 | 0.0 | 0.00 | 0.00 | 0.00 | 75 | 1012.1 |
| 20260905062731 | 85 | 184 | 0.0 | 1.0 | 0.00 | 0.00 | 0.00 | 75 | 1012.1 |
| 20260905062226 | 85 | 240 | 1.0 | 1.0 | 0.00 | 0.00 | 0.00 | 75 | 1012.2 |
| 20260905061726 | 85 | 222 | 1.0 | 2.0 | 0.00 | 0.00 | 0.00 | 75 | 1012.1 |
| 20260905061220 | 85 | 230 | 2.0 | 2.0 | 0.00 | 0.00 | 0.00 | 74 | 1012.3 |
| 20260905060715 | 85 | 238 | 3.0 | 3.0 | 0.00 | 0.00 | 0.00 | 74 | 1012.3 |
| 20260905060212 | 86 | 212 | 1.0 | 1.0 | 0.00 | 0.00 | 0.00 | 73 | 1012.2 |
| 20260905055710 | 86 | 135 | 0.0 | 0.0 | 0.00 | 0.00 | 0.00 | 73 | 1012.3 |
| 20260905055205 | 86 | 215 | 2.0 | 2.0 | 0.00 | 0.00 | 0.00 | 73 | 1012.3 |
| 20260905054700 | 86 | 226 | 3.0 | 3.0 | 0.00 | 0.00 | 0.00 | 73 | 1012.4 |
| 20260905054156 | 86 | 191 | 2.0 | 2.0 | 0.00 | 0.00 | 0.00 | 73 | 1012.3 |
| 20260905053656 | 86 | 200 | 1.0 | 2.0 | 0.00 | 0.00 | 0.00 | 73 | 1012.7 |
| 20260905053151 | 86 | 159 | 0.0 | 1.0 | 0.00 | 0.00 | 0.00 | 73 | 1012.7 |
| 20260905052645 | 87 | 71 | 0.0 | 0.0 | 0.00 | 0.00 | 0.00 | 71 | 1012.6 |
| 20260905052140 | 87 | 32 | 0.0 | 0.0 | 0.00 | 0.00 | 0.00 | 69 | 1012.7 |
| 20260905051635 | 87 | 99 | 1.0 | 1.0 | 0.00 | 0.00 | 0.00 | 69 | 1012.6 |
| 20260905051131 | 87 | 214 | 1.0 | 1.0 | 0.00 | 0.00 | 0.00 | 69 | 1012.5 |
| 20260905050622 | 87 | 221 | 2.0 | 2.0 | 0.00 | 0.00 | 0.00 | 69 | 1012.5 |
| 20260905050119 | 87 | 336 | 1.0 | 1.0 | 0.00 | 0.00 | 0.00 | 69 | 1012.5 |
| 20260905045618 | 87 | 279 | 1.0 | 1.0 | 0.00 | 0.00 | 0.00 | 69 | 1012.3 |
| 20260905045114 | 88 | 41 | 1.0 | 1.0 | 0.00 | 0.00 | 0.00 | 68 | 1012.3 |
| 20260905044614 | 88 | 296 | 1.0 | 2.0 | 0.00 | 0.00 | 0.00 | 68 | 1012.1 |
| 20260905044109 | 88 | 224 | 2.0 | 2.0 | 0.00 | 0.00 | 0.00 | 68 | 1012.2 |
| 20260905043607 | 88 | 196 | 2.0 | 2.0 | 0.00 | 0.00 | 0.00 | 68 | 1012.4 |
| 20260905043103 | 88 | 311 | 2.0 | 2.0 | 0.00 | 0.00 | 0.00 | 68 | 1012.3 |
| 20260905042601 | 88 | 241 | 1.0 | 1.0 | 0.00 | 0.00 | 0.00 | 68 | 1012.4 |
| 20260905042057 | 89 | 247 | 1.0 | 1.0 | 0.00 | 0.00 | 0.00 | 67 | 1012.1 |
| 20260905041552 | 89 | 247 | 2.0 | 2.0 | 0.00 | 0.00 | 0.00 | 66 | 1012.4 |
| 20260905041048 | 89 | 245 | 2.0 | 2.0 | 0.00 | 0.00 | 0.00 | 66 | 1012.2 |
| 20260905040547 | 89 | 205 | 2.0 | 2.0 | 0.00 | 0.00 | 0.00 | 65 | 1012.2 |
| 20260905040046 | 89 | 93 | 1.0 | 2.0 | 0.00 | 0.00 | 0.00 | 65 | 1012.4 |
| 20260905035541 | 89 | 163 | 1.0 | 1.0 | 0.00 | 0.00 | 0.00 | 65 | 1012.3 |
| 20260905035038 | 89 | 236 | 1.0 | 1.0 | 0.00 | 0.00 | 0.00 | 65 | 1012.6 |
| 20260905034533 | 89 | 13 | 0.0 | 0.0 | 0.00 | 0.00 | 0.00 | 66 | 1012.8 |
| 20260905034032 | 89 | 23 | 0.0 | 0.0 | 0.00 | 0.00 | 0.00 | 65 | 1012.6 |
| 20260905033526 | 90 | 20 | 0.0 | 1.0 | 0.00 | 0.00 | 0.00 | 64 | 1012.4 |
| 20260905033023 | 90 | 243 | 2.0 | 2.0 | 0.00 | 0.00 | 0.00 | 64 | 1012.7 |
| 20260905032517 | 91 | 55 | 0.0 | 0.0 | 0.00 | 0.00 | 0.00 | 63 | 1012.7 |
| 20260905032013 | 91 | 337 | 1.0 | 2.0 | 0.00 | 0.00 | 0.00 | 62 | 1012.6 |
| 20260905031509 | 91 | 333 | 1.0 | 1.0 | 0.00 | 0.00 | 0.00 | 61 | 1012.7 |
| 20260905031003 | 91 | 232 | 1.0 | 2.0 | 0.00 | 0.00 | 0.00 | 61 | 1012.4 |
| 20260905030458 | 91 | 68 | 0.0 | 0.0 | 0.00 | 0.00 | 0.00 | 61 | 1012.6 |
| 20260905025957 | 91 | 149 | 0.0 | 1.0 | 0.00 | 0.00 | 0.00 | 61 | 1012.9 |
| 20260905025453 | 91 | 91 | 0.0 | 0.0 | 0.00 | 0.00 | 0.00 | 61 | 1012.7 |
| 20260905024949 | 91 | 80 | 0.0 | 0.0 | 0.00 | 0.00 | 0.00 | 61 | 1012.4 |
| 20260905024449 | 91 | 91 | 0.0 | 0.0 | 0.00 | 0.00 | 0.00 | 61 | 1012.5 |
| 20260905023945 | 91 | 117 | 1.0 | 1.0 | 0.00 | 0.00 | 0.00 | 61 | 1012.4 |
| 20260905023440 | 91 | 104 | 0.0 | 1.0 | 0.00 | 0.00 | 0.00 | 61 | 1012.6 |
| 20260905022939 | 91 | 80 | 0.0 | 0.0 | 0.00 | 0.00 | 0.00 | 61 | 1012.5 |
| 20260905022434 | 91 | 88 | 0.0 | 0.0 | 0.00 | 0.00 | 0.00 | 61 | 1012.6 |
| 20260905021930 | 91 | 72 | 0.0 | 0.0 | 0.00 | 0.00 | 0.00 | 61 | 1012.5 |
| 20260905021429 | 91 | 66 | 0.0 | 0.0 | 0.00 | 0.00 | 0.00 | 61 | 1012.5 |
| 20260905020919 | 92 | 154 | 0.0 | 1.0 | 0.00 | 0.00 | 0.00 | 61 | 1012.4 |
| 20260905020418 | 92 | 220 | 1.0 | 1.0 | 0.00 | 0.00 | 0.00 | 60 | 1012.5 |
| 20260905015918 | 93 | 81 | 0.0 | 1.0 | 0.00 | 0.00 | 0.00 | 59 | 1012.2 |
| 20260905015416 | 93 | 79 | 0.0 | 0.0 | 0.00 | 0.00 | 0.00 | 59 | 1012.1 |
| 20260905014916 | 93 | 316 | 0.0 | 0.0 | 0.00 | 0.00 | 0.00 | 59 | 1012.1 |
| 20260905014411 | 93 | 9 | 0.0 | 0.0 | 0.00 | 0.00 | 0.00 | 58 | 1012.1 |
| 20260905013906 | 93 | 170 | 0.0 | 1.0 | 0.00 | 0.00 | 0.00 | 58 | 1012.1 |
| 20260905013403 | 93 | 233 | 1.0 | 1.0 | 0.00 | 0.00 | 0.00 | 58 | 1011.7 |
| 20260905012858 | 93 | 143 | 1.0 | 1.0 | 0.00 | 0.00 | 0.00 | 59 | 1011.8 |
| 20260905012353 | 93 | 181 | 0.0 | 0.0 | 0.00 | 0.00 | 0.00 | 60 | 1011.7 |
| 20260905011850 | 93 | 184 | 1.0 | 1.0 | 0.00 | 0.00 | 0.00 | 59 | 1011.9 |
| 20260905011345 | 94 | 118 | 1.0 | 1.0 | 0.00 | 0.00 | 0.00 | 59 | 1011.8 |
| 20260905010841 | 95 | 147 | 0.0 | 1.0 | 0.00 | 0.00 | 0.00 | 56 | 1011.6 |
| 20260905010336 | 95 | 231 | 3.0 | 3.0 | 0.00 | 0.00 | 0.00 | 55 | 1011.8 |
| 20260905005832 | 96 | 236 | 2.0 | 2.0 | 0.00 | 0.00 | 0.00 | 54 | 1011.6 |
| 20260905005327 | 96 | 266 | 2.0 | 2.0 | 0.00 | 0.00 | 0.00 | 53 | 1011.4 |
| 20260905004828 | 96 | 219 | 2.0 | 2.0 | 0.00 | 0.00 | 0.00 | 52 | 1011.5 |
| 20260905004317 | 96 | 251 | 3.0 | 5.0 | 0.00 | 0.00 | 0.00 | 52 | 1011.5 |
| 20260905003812 | 96 | 239 | 3.0 | 3.0 | 0.00 | 0.00 | 0.00 | 51 | 1011.3 |
| 20260905003309 | 96 | 243 | 3.0 | 5.0 | 0.00 | 0.00 | 0.00 | 51 | 1011.5 |
| 20260905002808 | 96 | 246 | 2.0 | 2.0 | 0.00 | 0.00 | 0.00 | 51 | 1011.7 |
| 20260905002306 | 96 | 233 | 3.0 | 3.0 | 0.00 | 0.00 | 0.00 | 51 | 1011.5 |
| 20260905001758 | 97 | 220 | 4.0 | 5.0 | 0.00 | 0.00 | 0.00 | 51 | 1011.6 |
| 20260905001258 | 97 | 234 | 2.0 | 2.0 | 0.00 | 0.00 | 0.00 | 51 | 1011.6 |
| 20260905000753 | 97 | 247 | 1.0 | 2.0 | 0.00 | 0.00 | 0.00 | 50 | 1011.5 |
| 20260905000249 | 97 | 223 | 3.0 | 3.0 | 0.00 | 0.00 | 0.00 | 49 | 1011.5 |
| 20260904235743 | 98 | 15 | 2.0 | 2.0 | 0.00 | 0.00 | 0.00 | 49 | 1011.6 |
| 20260904235238 | 98 | 249 | 2.0 | 2.0 | 0.00 | 0.00 | 0.00 | 49 | 1011.7 |
| 20260904234733 | 98 | 242 | 3.0 | 3.0 | 0.00 | 0.00 | 0.00 | 48 | 1011.5 |
| 20260904234228 | 98 | 227 | 3.0 | 3.0 | 0.00 | 0.00 | 0.00 | 48 | 1011.6 |
| 20260904233724 | 98 | 219 | 4.0 | 5.0 | 0.00 | 0.00 | 0.00 | 48 | 1011.6 |
| 20260904233220 | 98 | 267 | 3.0 | 3.0 | 0.00 | 0.00 | 0.00 | 48 | 1011.6 |
| 20260904232717 | 99 | 239 | 5.0 | 5.0 | 0.00 | 0.00 | 0.00 | 47 | 1011.5 |
| 20260904232213 | 99 | 52 | 0.0 | 1.0 | 0.00 | 0.00 | 0.00 | 48 | 1011.4 |
| 20260904231707 | 99 | 342 | 0.0 | 1.0 | 0.00 | 0.00 | 0.00 | 47 | 1011.3 |
| 20260904231203 | 99 | 187 | 2.0 | 2.0 | 0.00 | 0.00 | 0.00 | 47 | 1011.4 |
| 20260904230703 | 99 | 221 | 4.0 | 5.0 | 0.00 | 0.00 | 0.00 | 47 | 1011.3 |
| 20260904230158 | 99 | 291 | 3.0 | 5.0 | 0.00 | 0.00 | 0.00 | 47 | 1011.5 |
| 20260904225656 | 99 | 236 | 3.0 | 3.0 | 0.00 | 0.00 | 0.00 | 48 | 1011.4 |
| 20260904225151 | 99 | 244 | 5.0 | 6.0 | 0.00 | 0.00 | 0.00 | 48 | 1011.4 |
| 20260904224645 | 100 | 219 | 3.0 | 3.0 | 0.00 | 0.00 | 0.00 | 47 | 1011.3 |
| 20260904224144 | 99 | 260 | 3.0 | 3.0 | 0.00 | 0.00 | 0.00 | 47 | 1011.3 |
| 20260904223639 | 99 | 226 | 3.0 | 3.0 | 0.00 | 0.00 | 0.00 | 47 | 1011.3 |
| 20260904223134 | 100 | 291 | 3.0 | 3.0 | 0.00 | 0.00 | 0.00 | 47 | 1011.3 |
| 20260904222630 | 100 | 203 | 2.0 | 3.0 | 0.00 | 0.00 | 0.00 | 48 | 1011.0 |
| 20260904222125 | 98 | 231 | 2.0 | 3.0 | 0.00 | 0.00 | 0.00 | 48 | 1011.3 |
| 20260904221620 | 99 | 240 | 4.0 | 5.0 | 0.00 | 0.00 | 0.00 | 48 | 1011.2 |
| 20260904221119 | 99 | 227 | 4.0 | 6.0 | 0.00 | 0.00 | 0.00 | 48 | 1011.2 |
| 20260904220614 | 100 | 223 | 3.0 | 3.0 | 0.00 | 0.00 | 0.00 | 48 | 1011.3 |
| 20260904220109 | 100 | 312 | 2.0 | 2.0 | 0.00 | 0.00 | 0.00 | 47 | 1011.3 |
| 20260904215604 | 100 | 262 | 3.0 | 3.0 | 0.00 | 0.00 | 0.00 | 47 | 1011.4 |
| 20260904215100 | 101 | 234 | 5.0 | 6.0 | 0.00 | 0.00 | 0.00 | 46 | 1011.6 |
| 20260904214555 | 100 | 241 | 3.0 | 3.0 | 0.00 | 0.00 | 0.00 | 47 | 1011.5 |